createdAt,value
2023-01-18T00:02:57.915Z,5.20
2023-01-18T00:06:02.023Z,5.07
2023-01-18T00:09:05.683Z,5.15
2023-01-18T00:12:09.090Z,4.95
2023-01-18T00:15:11.976Z,4.43
2023-01-18T00:18:14.003Z,4.53
2023-01-18T00:21:16.288Z,5.03
2023-01-18T00:24:18.265Z,4.07
2023-01-18T00:27:21.773Z,5.25
2023-01-18T00:30:27.754Z,5.03
2023-01-18T00:33:30.903Z,5.75
2023-01-18T00:36:34.442Z,4.70
2023-01-18T00:39:38.269Z,4.63
2023-01-18T00:43:01.008Z,4.38
2023-01-18T00:46:06.183Z,4.50
2023-01-18T00:49:08.579Z,4.43
2023-01-18T00:52:10.744Z,4.93
2023-01-18T00:55:14.993Z,4.10
2023-01-18T00:58:17.152Z,3.80
2023-01-18T01:01:19.501Z,4.30
2023-01-18T01:04:40.524Z,4.03
2023-01-18T01:07:42.622Z,4.38
2023-01-18T01:10:46.566Z,4.22
2023-01-18T01:14:07.765Z,4.50
2023-01-18T01:17:28.039Z,3.78
2023-01-18T01:20:48.658Z,2.78
2023-01-18T01:24:10.763Z,3.63
2023-01-18T01:27:14.037Z,3.40
2023-01-18T01:30:16.987Z,2.65
2023-01-18T01:33:20.049Z,3.58
2023-01-18T01:36:28.538Z,2.95
2023-01-18T01:39:32.935Z,3.22
2023-01-18T01:42:34.959Z,2.80
2023-01-18T01:45:38.391Z,2.92
2023-01-18T01:48:41.723Z,3.22
2023-01-18T01:51:49.111Z,2.65
2023-01-18T01:54:58.400Z,2.40
2023-01-18T01:58:26.446Z,3.00
2023-01-18T02:01:30.080Z,3.45
2023-01-18T02:04:33.473Z,3.50
2023-01-18T02:07:35.744Z,3.05
2023-01-18T02:10:38.110Z,2.90
2023-01-18T02:13:40.410Z,2.47
2023-01-18T02:16:48.331Z,2.53
2023-01-18T02:20:19.819Z,3.13
2023-01-18T02:23:28.490Z,2.38
2023-01-18T02:27:06.165Z,2.78
2023-01-18T02:30:32.677Z,2.95
2023-01-18T02:33:47.237Z,3.53
2023-01-18T02:37:02.126Z,2.60
2023-01-18T02:40:22.219Z,2.60
2023-01-18T02:43:44.073Z,2.40
2023-01-18T02:46:46.566Z,3.00
2023-01-18T02:49:48.640Z,2.45
2023-01-18T02:52:53.804Z,2.13
2023-01-18T02:56:06.903Z,2.70
2023-01-18T02:59:20.897Z,4.45
2023-01-18T03:02:26.518Z,2.38
2023-01-18T03:05:31.205Z,2.30
2023-01-18T03:08:41.970Z,2.60
2023-01-18T03:12:12.991Z,1.80
2023-01-18T03:15:27.799Z,1.83
2023-01-18T03:18:30.381Z,2.67
2023-01-18T03:21:49.426Z,2.35
2023-01-18T03:24:51.651Z,1.85
2023-01-18T03:28:14.641Z,2.42
2023-01-18T03:31:56.706Z,2.80
2023-01-18T03:35:16.482Z,2.47
2023-01-18T03:38:20.825Z,2.25
2023-01-18T03:41:27.121Z,4.07
2023-01-18T03:44:39.988Z,2.20
2023-01-18T03:47:42.564Z,2.75
2023-01-18T03:51:10.796Z,2.38
2023-01-18T03:54:29.181Z,3.08
2023-01-18T03:57:40.684Z,2.53
2023-01-18T04:00:43.485Z,3.40
2023-01-18T04:03:45.547Z,2.65
2023-01-18T04:06:47.493Z,3.22
2023-01-18T04:09:49.740Z,1.88
2023-01-18T04:12:51.778Z,2.53
2023-01-18T04:15:53.893Z,4.03
2023-01-18T04:18:55.995Z,3.35
2023-01-18T04:21:58.126Z,3.17
2023-01-18T04:25:00.341Z,2.78
2023-01-18T04:28:02.663Z,2.67
2023-01-18T04:31:05.868Z,3.05
2023-01-18T04:34:08.804Z,2.88
2023-01-18T04:37:12.080Z,3.40
2023-01-18T04:40:14.270Z,3.10
2023-01-18T04:43:16.644Z,2.85
2023-01-18T04:46:18.909Z,3.70
2023-01-18T04:49:22.280Z,2.83
2023-01-18T04:52:25.680Z,2.85
2023-01-18T04:55:28.064Z,2.10
2023-01-18T04:58:30.070Z,2.95
2023-01-18T05:01:32.591Z,3.25
2023-01-18T05:04:34.998Z,3.55
2023-01-18T05:07:37.023Z,3.22
2023-01-18T05:10:39.318Z,3.08
2023-01-18T05:13:41.801Z,2.90
2023-01-18T05:16:43.867Z,2.97
2023-01-18T05:19:46.991Z,2.90
2023-01-18T05:22:49.252Z,4.20
2023-01-18T05:25:55.382Z,3.67
2023-01-18T05:28:58.271Z,3.83
2023-01-18T05:32:01.298Z,4.57
2023-01-18T05:35:05.079Z,4.13
2023-01-18T05:38:07.256Z,5.45
2023-01-18T05:41:09.309Z,5.18
2023-01-18T05:44:11.419Z,5.28
2023-01-18T05:47:13.542Z,5.88
2023-01-18T05:50:16.202Z,5.95
2023-01-18T05:53:20.887Z,5.32
2023-01-18T05:56:22.881Z,3.80
2023-01-18T05:59:25.092Z,4.53
2023-01-18T06:02:27.325Z,4.82
2023-01-18T06:05:29.511Z,6.38
2023-01-18T06:08:32.067Z,4.70
2023-01-18T06:11:34.111Z,4.05
2023-01-18T06:14:36.219Z,4.88
2023-01-18T06:17:38.308Z,4.45
2023-01-18T06:20:40.818Z,4.15
2023-01-18T06:23:42.969Z,5.70
2023-01-18T06:26:45.089Z,3.63
2023-01-18T06:29:47.331Z,3.03
2023-01-18T06:32:52.547Z,2.70
2023-01-18T06:35:56.615Z,3.90
2023-01-18T06:38:59.016Z,2.97
2023-01-18T06:42:01.442Z,4.80
2023-01-18T06:45:04.277Z,2.45
2023-01-18T06:48:06.540Z,3.47
2023-01-18T06:51:08.654Z,3.22
2023-01-18T06:54:10.840Z,2.50
2023-01-18T06:57:13.170Z,4.53
2023-01-18T07:00:17.018Z,2.72
2023-01-18T07:03:19.202Z,4.00
2023-01-18T07:06:21.527Z,4.38
2023-01-18T07:09:24.220Z,3.90
2023-01-18T07:12:26.842Z,4.20
2023-01-18T07:15:30.197Z,2.47
2023-01-18T07:18:32.583Z,3.13
2023-01-18T07:21:34.699Z,3.33
2023-01-18T07:24:36.856Z,3.65
2023-01-18T07:27:40.352Z,3.60
2023-01-18T07:30:42.621Z,3.45
2023-01-18T07:33:45.160Z,2.92
2023-01-18T07:36:47.949Z,3.70
2023-01-18T07:39:51.901Z,3.35
2023-01-18T07:42:58.305Z,2.50
2023-01-18T07:46:02.068Z,2.83
2023-01-18T07:49:05.932Z,3.65
2023-01-18T07:52:08.398Z,3.65
2023-01-18T07:55:12.842Z,3.15
2023-01-18T07:58:14.916Z,2.13
2023-01-18T08:01:20.188Z,2.65
2023-01-18T08:04:22.487Z,2.03
2023-01-18T08:07:24.603Z,2.38
2023-01-18T08:10:29.942Z,2.85
2023-01-18T08:13:35.244Z,3.45
2023-01-18T08:16:37.399Z,2.38
2023-01-18T08:19:39.458Z,2.45
2023-01-18T08:22:41.807Z,2.05
2023-01-18T08:25:45.070Z,2.50
2023-01-18T08:28:47.144Z,3.00
2023-01-18T08:31:52.744Z,2.28
2023-01-18T08:34:54.760Z,3.22
2023-01-18T08:37:58.152Z,3.80
2023-01-18T08:41:04.863Z,3.72
2023-01-18T08:44:07.001Z,3.30
2023-01-18T08:47:09.217Z,3.35
2023-01-18T08:50:12.788Z,3.28
2023-01-18T08:53:14.857Z,2.25
2023-01-18T08:56:18.147Z,2.97
2023-01-18T08:59:21.154Z,2.15
2023-01-18T09:02:25.154Z,3.85
2023-01-18T09:05:27.397Z,3.95
2023-01-18T09:08:29.707Z,2.88
2023-01-18T09:11:31.991Z,2.03
2023-01-18T09:14:34.229Z,2.47
2023-01-18T09:17:36.326Z,2.33
2023-01-18T09:20:38.378Z,2.00
2023-01-18T09:23:41.150Z,2.22
2023-01-18T09:26:45.215Z,1.98
2023-01-18T09:29:52.401Z,2.00
2023-01-18T09:32:57.965Z,2.42
2023-01-18T09:36:04.515Z,3.80
2023-01-18T09:39:07.457Z,3.75
2023-01-18T09:42:19.141Z,2.75
2023-01-18T09:45:35.169Z,1.92
2023-01-18T09:48:41.147Z,2.15
2023-01-18T09:52:12.265Z,2.25
2023-01-18T09:55:22.748Z,1.85
2023-01-18T09:58:42.883Z,2.50
2023-01-18T10:01:46.183Z,2.83
2023-01-18T10:04:56.599Z,2.10
2023-01-18T10:08:16.048Z,3.00
2023-01-18T10:11:34.115Z,2.35
2023-01-18T10:14:57.131Z,1.85
2023-01-18T10:18:01.096Z,2.15
2023-01-18T10:21:07.207Z,2.67
2023-01-18T10:24:20.260Z,2.47
2023-01-18T10:27:40.989Z,2.20
2023-01-18T10:31:04.736Z,2.55
2023-01-18T10:34:22.666Z,2.38
2023-01-18T10:37:57.623Z,2.67
2023-01-18T10:41:02.190Z,2.33
2023-01-18T10:44:04.836Z,3.33
2023-01-18T10:47:08.314Z,2.30
2023-01-18T10:50:17.096Z,2.78
2023-01-18T10:53:35.518Z,3.30
2023-01-18T10:56:40.122Z,2.40
2023-01-18T10:59:43.185Z,1.95
2023-01-18T11:02:46.072Z,2.30
2023-01-18T11:05:48.648Z,2.17
2023-01-18T11:08:51.565Z,1.77
2023-01-18T11:12:30.924Z,2.47
2023-01-18T11:15:33.087Z,2.50
2023-01-18T11:18:35.192Z,1.88
2023-01-18T11:21:42.865Z,1.92
2023-01-18T11:24:45.043Z,1.47
2023-01-18T11:27:50.015Z,2.10
2023-01-18T11:30:54.771Z,1.80
2023-01-18T11:34:04.111Z,2.60
2023-01-18T11:37:31.197Z,2.80
2023-01-18T11:40:35.076Z,1.63
2023-01-18T11:43:39.470Z,3.05
2023-01-18T11:46:49.988Z,2.40
2023-01-18T11:50:13.517Z,1.90
2023-01-18T11:53:25.689Z,2.33
2023-01-18T11:56:40.985Z,2.20
2023-01-18T11:59:48.133Z,3.08
2023-01-18T12:02:59.231Z,2.25
2023-01-18T12:06:07.073Z,2.90
2023-01-18T12:09:24.278Z,2.33
2023-01-18T12:12:53.761Z,3.17
2023-01-18T12:19:15.962Z,3.17
2023-01-18T12:22:36.494Z,2.80
2023-01-18T12:26:20.332Z,2.30
2023-01-18T12:29:43.788Z,2.53
2023-01-18T12:32:58.084Z,2.80
2023-01-18T12:36:32.735Z,2.90
2023-01-18T12:39:58.422Z,3.25
2023-01-18T12:43:20.421Z,3.58
2023-01-18T12:46:47.112Z,2.83
2023-01-18T12:49:56.270Z,1.95
2023-01-18T12:53:04.783Z,3.58
2023-01-18T12:59:42.961Z,3.67
2023-01-18T13:06:02.688Z,3.58
2023-01-18T13:09:13.039Z,3.65
2023-01-18T13:12:17.652Z,3.75
2023-01-18T13:15:55.080Z,2.97
2023-01-18T13:19:06.671Z,3.17
2023-01-18T13:22:40.746Z,3.70
2023-01-18T13:25:46.235Z,3.10
2023-01-18T13:29:14.109Z,2.58
2023-01-18T13:32:32.152Z,2.08
2023-01-18T13:35:35.969Z,2.13
2023-01-18T13:38:58.800Z,3.38
2023-01-18T13:42:04.209Z,3.97
2023-01-18T13:45:15.086Z,2.67
2023-01-18T13:48:35.706Z,1.85
2023-01-18T13:51:40.673Z,2.30
2023-01-18T13:54:46.831Z,2.45
2023-01-18T13:57:55.588Z,2.50
2023-01-18T14:01:03.464Z,2.92
2023-01-18T14:04:19.999Z,1.60
2023-01-18T14:07:23.390Z,1.75
2023-01-18T14:10:30.776Z,3.05
2023-01-18T14:13:45.255Z,2.55
2023-01-18T14:17:22.722Z,2.83
2023-01-18T14:20:48.916Z,2.70
2023-01-18T14:24:09.991Z,3.58
2023-01-18T14:27:20.142Z,3.00
2023-01-18T14:30:30.724Z,2.40
2023-01-18T14:33:42.811Z,4.07
2023-01-18T14:36:44.924Z,5.82
2023-01-18T14:39:48.324Z,4.90
2023-01-18T14:43:00.107Z,4.75
2023-01-18T14:46:25.288Z,4.22
2023-01-18T14:49:39.257Z,4.47
2023-01-18T14:52:44.220Z,3.97
2023-01-18T14:56:02.701Z,3.17
2023-01-18T14:59:28.746Z,2.50
2023-01-18T15:02:39.629Z,2.65
2023-01-18T15:05:42.810Z,2.92
2023-01-18T15:08:47.222Z,2.70
2023-01-18T15:11:52.336Z,3.88
2023-01-18T15:15:03.867Z,3.10
2023-01-18T15:18:11.146Z,3.22
2023-01-18T15:21:19.026Z,3.42
2023-01-18T15:24:25.515Z,4.30
2023-01-18T15:27:31.940Z,3.22
2023-01-18T15:30:34.147Z,3.13
2023-01-18T15:33:37.700Z,5.43
2023-01-18T15:36:45.047Z,4.07
2023-01-18T15:39:51.020Z,3.70
2023-01-18T15:43:02.594Z,3.50
2023-01-18T15:46:09.177Z,3.45
2023-01-18T15:49:16.868Z,3.58
2023-01-18T15:52:43.871Z,3.88
2023-01-18T15:55:55.841Z,3.72
2023-01-18T15:59:03.052Z,3.30
2023-01-18T16:02:11.775Z,3.00
2023-01-18T16:05:18.342Z,2.80
2023-01-18T16:08:22.984Z,4.37
2023-01-18T16:11:34.281Z,3.00
2023-01-18T16:14:38.507Z,3.30
2023-01-18T16:17:43.589Z,4.20
2023-01-18T16:20:45.802Z,3.47
2023-01-18T16:23:49.947Z,4.88
2023-01-18T16:26:52.668Z,4.97
2023-01-18T16:30:15.723Z,6.80
2023-01-18T16:33:20.969Z,6.10
2023-01-18T16:36:24.243Z,7.43
2023-01-18T16:39:27.739Z,6.70
2023-01-18T16:42:38.069Z,7.38
2023-01-18T16:45:41.950Z,6.93
2023-01-18T16:48:49.787Z,6.82
2023-01-18T16:51:51.827Z,8.13
2023-01-18T16:55:01.170Z,8.77
2023-01-18T16:58:06.750Z,8.10
2023-01-18T17:01:14.734Z,10.88
2023-01-18T17:04:18.577Z,12.27
2023-01-18T17:07:22.064Z,10.73
2023-01-18T17:10:35.166Z,10.15
2023-01-18T17:13:37.276Z,10.60
2023-01-18T17:16:43.943Z,11.93
2023-01-18T17:19:46.185Z,11.98
2023-01-18T17:22:48.895Z,11.98
2023-01-18T17:25:50.956Z,11.98
2023-01-18T17:28:53.164Z,12.23
2023-01-18T17:31:55.291Z,13.93
2023-01-18T17:34:57.564Z,13.50
2023-01-18T17:38:05.712Z,14.07
2023-01-18T17:41:27.259Z,14.95
2023-01-18T17:44:36.711Z,14.48
2023-01-18T17:47:42.735Z,16.08
2023-01-18T17:50:44.863Z,14.05
2023-01-18T17:53:47.940Z,13.23
2023-01-18T17:56:52.401Z,14.75
2023-01-18T17:59:56.051Z,18.40
2023-01-18T18:02:59.393Z,15.38
2023-01-18T18:06:03.874Z,17.77
2023-01-18T18:09:06.941Z,15.73
2023-01-18T18:12:10.884Z,14.45
2023-01-18T18:15:14.892Z,16.42
2023-01-18T18:18:24.195Z,19.88
2023-01-18T18:21:27.515Z,18.55
2023-01-18T18:24:30.686Z,20.02
2023-01-18T18:27:44.731Z,18.80
2023-01-18T18:30:49.100Z,18.90
2023-01-18T18:33:51.409Z,18.13
2023-01-18T18:36:53.843Z,20.60
2023-01-18T18:39:55.985Z,18.63
2023-01-18T18:43:02.429Z,20.23
2023-01-18T18:46:05.190Z,20.60
2023-01-18T18:49:07.387Z,22.35
2023-01-18T18:52:09.497Z,23.58
2023-01-18T18:55:12.159Z,25.30
2023-01-18T18:58:16.026Z,23.70
2023-01-18T19:01:23.845Z,23.60
2023-01-18T19:04:26.839Z,25.07
2023-01-18T19:07:29.207Z,24.27
2023-01-18T19:10:31.400Z,22.13
2023-01-18T19:13:33.500Z,21.88
2023-01-18T19:16:37.537Z,21.55
2023-01-18T19:19:39.660Z,20.60
2023-01-18T19:22:44.094Z,22.30
2023-01-18T19:25:48.937Z,21.90
2023-01-18T19:28:53.518Z,21.85
2023-01-18T19:31:55.921Z,23.08
2023-01-18T19:34:58.121Z,21.25
2023-01-18T19:38:01.043Z,19.55
2023-01-18T19:41:03.279Z,17.60
2023-01-18T19:44:05.705Z,19.27
2023-01-18T19:47:07.692Z,22.55
2023-01-18T19:50:10.410Z,21.10
2023-01-18T19:53:14.106Z,22.15
2023-01-18T19:56:16.298Z,19.92
2023-01-18T19:59:18.725Z,18.10
2023-01-18T20:02:22.522Z,18.13
2023-01-18T20:05:25.019Z,18.63
2023-01-18T20:08:27.077Z,19.85
2023-01-18T20:11:29.295Z,18.02
2023-01-18T20:14:40.932Z,17.55
2023-01-18T20:17:43.942Z,18.77
2023-01-18T20:20:46.070Z,12.10
2023-01-18T20:23:48.641Z,13.23
2023-01-18T20:26:50.815Z,13.23
2023-01-18T20:29:53.197Z,14.95
2023-01-18T20:32:57.860Z,13.60
2023-01-18T20:36:01.836Z,15.00
2023-01-18T20:39:05.543Z,15.02
2023-01-18T20:42:08.814Z,16.20
2023-01-18T20:45:11.069Z,15.55
2023-01-18T20:48:14.130Z,13.10
2023-01-18T20:51:18.042Z,13.70
2023-01-18T20:54:22.964Z,12.75
2023-01-18T20:57:27.391Z,11.43
2023-01-18T21:00:29.682Z,12.63
2023-01-18T21:03:31.748Z,11.93
2023-01-18T21:06:34.247Z,11.25
2023-01-18T21:09:36.520Z,12.10
2023-01-18T21:12:38.622Z,10.43
2023-01-18T21:15:42.096Z,15.45
2023-01-18T21:18:44.159Z,17.98
2023-01-18T21:21:46.411Z,18.48
2023-01-18T21:24:48.919Z,17.15
2023-01-18T21:27:52.161Z,15.50
2023-01-18T21:30:55.988Z,16.23
2023-01-18T21:33:58.709Z,18.25
2023-01-18T21:37:00.808Z,17.50
2023-01-18T21:40:04.053Z,17.85
2023-01-18T21:43:25.066Z,18.30
2023-01-18T21:46:27.137Z,17.20
2023-01-18T21:50:15.448Z,17.85
2023-01-18T21:53:33.156Z,19.25
2023-01-18T21:56:37.481Z,20.35
2023-01-18T21:59:39.514Z,18.70
2023-01-18T22:02:42.957Z,18.80
2023-01-18T22:05:45.120Z,18.30
2023-01-18T22:08:47.312Z,18.30
2023-01-18T22:11:50.224Z,17.08
2023-01-18T22:14:52.937Z,18.17
2023-01-18T22:17:55.145Z,16.95
2023-01-18T22:20:57.186Z,18.27
2023-01-18T22:24:00.678Z,15.00
2023-01-18T22:27:02.731Z,16.38
2023-01-18T22:30:05.816Z,15.40
2023-01-18T22:33:07.929Z,16.13
2023-01-18T22:36:10.469Z,14.95
2023-01-18T22:39:13.375Z,16.25
2023-01-18T22:42:15.420Z,15.75
2023-01-18T22:45:18.868Z,13.93
2023-01-18T22:48:21.101Z,13.95
2023-01-18T22:51:24.128Z,14.90
2023-01-18T22:54:26.413Z,14.98
2023-01-18T22:57:28.484Z,13.25
2023-01-18T23:00:30.526Z,14.57
2023-01-18T23:03:33.807Z,12.75
2023-01-18T23:06:50.818Z,13.70
2023-01-18T23:09:52.936Z,12.82
2023-01-18T23:12:56.153Z,12.63
2023-01-18T23:16:16.711Z,11.55
2023-01-18T23:19:18.820Z,13.18
2023-01-18T23:22:21.106Z,12.02
2023-01-18T23:25:23.116Z,13.30
2023-01-18T23:28:41.246Z,12.73
2023-01-18T23:31:44.647Z,14.10
2023-01-18T23:34:47.967Z,13.10
2023-01-18T23:37:50.305Z,13.35
2023-01-18T23:41:15.236Z,13.13
2023-01-18T23:44:35.979Z,14.32
2023-01-18T23:47:56.845Z,12.10
2023-01-18T23:51:19.211Z,13.43
2023-01-18T23:54:22.543Z,12.63
2023-01-18T23:57:25.129Z,13.13
